createdAt,value
2023-05-11T00:00:48.621Z,100151.00
2023-05-11T00:05:50.434Z,100150.78
2023-05-11T00:10:52.179Z,100150.34
2023-05-11T00:15:53.852Z,100150.66
2023-05-11T00:20:56.819Z,100142.19
2023-05-11T00:25:58.408Z,100147.94
2023-05-11T00:31:00.034Z,100138.41
2023-05-11T00:36:03.422Z,100148.97
2023-05-11T00:41:04.988Z,100142.69
2023-05-11T00:46:07.109Z,100145.41
2023-05-11T00:51:08.954Z,100146.84
2023-05-11T00:56:10.633Z,100142.69
2023-05-11T01:01:12.385Z,100144.00
2023-05-11T01:06:53.320Z,100137.16
2023-05-11T01:12:08.299Z,100142.31
2023-05-11T01:17:18.456Z,100139.13
2023-05-11T01:22:38.004Z,100136.63
2023-05-11T01:27:56.745Z,100125.78
2023-05-11T01:33:03.366Z,100130.31
2023-05-11T01:38:10.334Z,100122.75
2023-05-11T01:43:20.519Z,100131.19
2023-05-11T01:48:25.879Z,100126.31
2023-05-11T01:53:33.272Z,100142.09
2023-05-11T01:58:38.720Z,100139.22
2023-05-11T02:03:42.902Z,100133.75
2023-05-11T02:08:46.030Z,100141.34
2023-05-11T02:13:49.422Z,100142.34
2023-05-11T02:18:52.776Z,100138.31
2023-05-11T02:23:56.919Z,100142.50
2023-05-11T02:28:58.546Z,100146.91
2023-05-11T02:34:07.069Z,100145.25
2023-05-11T02:39:12.712Z,100144.78
2023-05-11T02:44:18.321Z,100147.50
2023-05-11T02:49:25.396Z,100140.53
2023-05-11T02:54:29.144Z,100145.69
2023-05-11T02:59:31.388Z,100142.28
2023-05-11T03:04:34.690Z,100143.72
2023-05-11T03:09:38.001Z,100142.56
2023-05-11T03:14:40.323Z,100148.41
2023-05-11T03:19:43.081Z,100144.81
2023-05-11T03:24:46.087Z,100142.94
2023-05-11T03:29:50.813Z,100145.69
2023-05-11T03:34:52.692Z,100138.69
2023-05-11T03:39:58.841Z,100141.81
2023-05-11T03:45:06.006Z,100146.41
2023-05-11T03:50:09.185Z,100137.28
2023-05-11T03:55:11.304Z,100140.13
2023-05-11T04:00:13.806Z,100135.63
2023-05-11T04:05:19.252Z,100137.69
2023-05-11T04:10:22.738Z,100135.06
2023-05-11T04:15:24.335Z,100140.06
2023-05-11T04:20:26.017Z,100143.84
2023-05-11T04:25:27.637Z,100147.44
2023-05-11T04:30:29.321Z,100146.13
2023-05-11T04:35:31.825Z,100150.66
2023-05-11T04:40:36.626Z,100154.38
2023-05-11T04:45:38.415Z,100148.78
2023-05-11T04:50:40.152Z,100148.16
2023-05-11T04:55:42.687Z,100148.44
2023-05-11T05:00:44.558Z,100151.41
2023-05-11T05:05:47.683Z,100152.13
2023-05-11T05:10:49.396Z,100151.19
2023-05-11T05:15:51.133Z,100168.09
2023-05-11T05:20:53.043Z,100169.66
2023-05-11T05:25:54.743Z,100165.97
2023-05-11T05:30:57.003Z,100161.19
2023-05-11T05:36:01.496Z,100166.09
2023-05-11T05:41:03.642Z,100166.56
2023-05-11T05:46:09.644Z,100172.28
2023-05-11T05:51:11.595Z,100174.00
2023-05-11T05:56:21.849Z,100174.59
2023-05-11T06:01:32.893Z,100170.97
2023-05-11T06:06:34.627Z,100179.91
2023-05-11T06:11:36.678Z,100172.22
2023-05-11T06:16:39.027Z,100173.09
2023-05-11T06:21:42.933Z,100172.53
2023-05-11T06:26:44.686Z,100169.69
2023-05-11T06:31:46.413Z,100166.94
2023-05-11T06:36:48.817Z,100160.88
2023-05-11T06:41:53.578Z,100162.94
2023-05-11T06:46:56.701Z,100160.25
2023-05-11T06:51:58.341Z,100155.59
2023-05-11T06:56:59.991Z,100153.94
2023-05-11T07:02:01.658Z,100152.03
2023-05-11T07:07:03.914Z,100155.56
2023-05-11T07:12:05.842Z,100151.88
2023-05-11T07:17:07.466Z,100158.88
2023-05-11T07:22:09.060Z,100152.34
2023-05-11T07:27:11.377Z,100153.09
2023-05-11T07:32:13.208Z,100156.38
2023-05-11T07:37:20.526Z,100155.03
2023-05-11T07:42:22.088Z,100164.78
2023-05-11T07:47:24.876Z,100166.19
2023-05-11T07:52:26.799Z,100161.38
2023-05-11T07:57:28.420Z,100163.16
2023-05-11T08:02:30.428Z,100169.25
2023-05-11T08:07:32.065Z,100162.03
2023-05-11T08:12:33.901Z,100169.81
2023-05-11T08:17:38.569Z,100168.56
2023-05-11T08:22:40.230Z,100164.72
2023-05-11T08:27:50.612Z,100152.69
2023-05-11T08:32:58.668Z,100163.31
2023-05-11T08:38:01.509Z,100152.34
2023-05-11T08:43:05.810Z,100152.38
2023-05-11T08:48:07.594Z,100156.25
2023-05-11T08:53:09.199Z,100156.78
2023-05-11T08:58:12.398Z,100155.41
2023-05-11T09:03:14.805Z,100148.53
2023-05-11T09:08:19.012Z,100156.00
2023-05-11T09:13:27.307Z,100157.13
2023-05-11T09:18:30.141Z,100146.59
2023-05-11T09:23:32.240Z,100148.28
2023-05-11T09:33:47.586Z,100145.19
2023-05-11T09:38:49.197Z,100149.31
2023-05-11T09:43:50.913Z,100153.25
2023-05-11T09:49:00.468Z,100152.66
2023-05-11T09:54:15.009Z,100143.69
2023-05-11T09:59:41.370Z,100133.19
2023-05-11T10:04:43.025Z,100136.09
2023-05-11T10:09:45.903Z,100138.88
2023-05-11T10:14:49.366Z,100129.81
2023-05-11T10:19:54.392Z,100138.31
2023-05-11T10:24:59.858Z,100132.59
2023-05-11T10:30:03.881Z,100128.06
2023-05-11T10:35:06.846Z,100123.31
2023-05-11T10:40:09.723Z,100115.28
2023-05-11T10:45:29.846Z,100109.13
2023-05-11T10:51:09.106Z,100089.03
2023-05-11T10:56:20.005Z,100096.94
2023-05-11T11:01:39.559Z,100098.19
2023-05-11T11:06:43.488Z,100087.72
2023-05-11T11:11:47.978Z,100102.31
2023-05-11T11:17:21.328Z,100097.94
2023-05-11T11:22:35.399Z,100083.66
2023-05-11T11:27:44.600Z,100086.88
2023-05-11T11:32:48.439Z,100076.44
2023-05-11T11:38:03.586Z,100062.81
2023-05-11T11:43:18.144Z,100062.19
2023-05-11T11:48:29.374Z,100074.44
2023-05-11T11:53:44.630Z,100056.28
2023-05-11T11:58:46.648Z,100049.28
2023-05-11T12:04:11.217Z,100059.31
2023-05-11T12:09:18.345Z,100046.22
2023-05-11T12:14:21.645Z,100064.59
2023-05-11T12:19:24.642Z,100038.06
2023-05-11T12:24:26.913Z,100037.94
2023-05-11T12:29:28.501Z,100044.94
2023-05-11T12:34:32.678Z,100031.00
2023-05-11T12:39:36.221Z,100034.94
2023-05-11T12:44:37.904Z,100030.72
2023-05-11T12:49:56.791Z,100016.06
2023-05-11T12:55:00.785Z,100020.59
2023-05-11T13:00:15.848Z,100015.34
2023-05-11T13:05:19.967Z,100015.38
2023-05-11T13:10:25.510Z,100003.72
2023-05-11T13:15:28.682Z,99983.75
2023-05-11T13:20:33.847Z,99992.25
2023-05-11T13:25:55.024Z,99987.75
2023-05-11T13:31:01.939Z,99980.56
2023-05-11T13:36:03.857Z,99965.00
2023-05-11T13:41:06.786Z,99963.28
2023-05-11T13:46:08.400Z,99963.41
2023-05-11T13:51:09.982Z,99962.84
2023-05-11T13:56:11.912Z,99954.25
2023-05-11T14:01:13.549Z,99957.78
2023-05-11T14:06:15.269Z,99943.72
2023-05-11T14:11:17.242Z,99946.41
2023-05-11T14:16:20.858Z,99937.41
2023-05-11T14:21:22.615Z,99943.13
2023-05-11T14:26:24.273Z,99951.88
2023-05-11T14:31:26.157Z,99942.78
2023-05-11T14:36:28.115Z,99946.94
2023-05-11T14:41:30.541Z,99943.16
2023-05-11T14:46:32.369Z,99939.88
2023-05-11T14:51:34.117Z,99927.53
2023-05-11T14:56:36.292Z,99918.75
2023-05-11T15:01:38.053Z,99919.13
2023-05-11T15:06:39.812Z,99914.22
2023-05-11T15:11:41.448Z,99936.38
2023-05-11T15:16:43.141Z,99923.56
2023-05-11T15:21:56.778Z,99932.53
2023-05-11T15:26:58.546Z,99927.63
2023-05-11T15:32:00.245Z,99928.94
2023-05-11T15:37:01.906Z,99931.78
2023-05-11T15:42:04.007Z,99923.59
2023-05-11T15:47:06.158Z,99925.09
2023-05-11T15:52:08.304Z,99932.44
2023-05-11T15:57:09.960Z,99931.38
2023-05-11T16:02:11.884Z,99919.16
2023-05-11T16:07:13.710Z,99913.09
2023-05-11T16:12:15.365Z,99918.31
2023-05-11T16:17:17.092Z,99917.28
2023-05-11T16:22:18.775Z,99909.69
2023-05-11T16:27:20.577Z,99903.31
2023-05-11T16:32:22.163Z,99905.81
2023-05-11T16:37:27.014Z,99906.38
2023-05-11T16:42:28.617Z,99905.56
2023-05-11T16:47:33.057Z,99913.13
2023-05-11T16:52:34.662Z,99917.97
2023-05-11T16:57:36.342Z,99919.66
2023-05-11T17:02:38.029Z,99929.13
2023-05-11T17:07:39.912Z,99918.69
2023-05-11T17:12:41.717Z,99919.28
2023-05-11T17:17:44.859Z,99921.22
2023-05-11T17:22:47.211Z,99915.69
2023-05-11T17:27:49.197Z,99917.63
2023-05-11T17:32:51.981Z,99934.16
2023-05-11T17:37:53.816Z,99941.34
2023-05-11T17:42:55.713Z,99940.75
2023-05-11T17:47:57.323Z,99958.91
2023-05-11T17:53:02.939Z,99949.69
2023-05-11T17:58:04.559Z,99964.44
2023-05-11T18:03:08.988Z,99966.00
2023-05-11T18:08:10.661Z,99969.44
2023-05-11T18:13:13.119Z,99973.81
2023-05-11T18:18:15.038Z,99987.56
2023-05-11T18:23:16.577Z,99981.97
2023-05-11T18:28:20.861Z,99979.69
2023-05-11T18:33:22.642Z,99980.16
2023-05-11T18:38:24.296Z,99985.66
2023-05-11T18:43:25.897Z,99980.06
2023-05-11T18:48:27.457Z,99982.50
2023-05-11T18:53:33.483Z,99982.50
2023-05-11T18:58:35.030Z,99981.94
2023-05-11T19:03:36.613Z,99980.63
2023-05-11T19:08:38.236Z,99995.41
2023-05-11T19:13:40.558Z,99996.34
2023-05-11T19:18:42.260Z,100001.66
2023-05-11T19:23:43.844Z,100005.13
2023-05-11T19:28:45.447Z,100011.97
2023-05-11T19:33:50.982Z,100010.94
2023-05-11T19:38:52.694Z,100025.94
2023-05-11T19:43:54.474Z,100019.78
2023-05-11T19:48:56.398Z,100036.28
2023-05-11T19:54:03.119Z,100036.53
2023-05-11T19:59:04.923Z,100035.13
2023-05-11T20:04:06.518Z,100040.03
2023-05-11T20:09:08.263Z,100042.13
2023-05-11T20:14:09.841Z,100043.97
2023-05-11T20:19:15.231Z,100043.91
2023-05-11T20:24:16.796Z,100045.22
2023-05-11T20:29:18.392Z,100041.06
2023-05-11T20:34:20.033Z,100046.56
2023-05-11T20:39:22.013Z,100041.16
2023-05-11T20:44:23.634Z,100034.75
2023-05-11T20:49:37.412Z,100045.06
2023-05-11T20:54:40.335Z,100039.25
2023-05-11T21:04:46.915Z,100039.91
2023-05-11T21:09:48.709Z,100038.75
2023-05-11T21:14:50.453Z,100026.84
2023-05-11T21:19:52.173Z,100032.50
2023-05-11T21:24:53.831Z,100046.91
2023-05-11T21:29:56.428Z,100038.84
2023-05-11T21:34:58.110Z,100041.13
2023-05-11T21:40:00.545Z,100048.19
2023-05-11T21:45:02.962Z,100048.69
2023-05-11T21:50:09.531Z,100052.91
2023-05-11T21:55:11.167Z,100053.06
2023-05-11T22:00:18.587Z,100057.16
2023-05-11T22:05:20.824Z,100059.25
2023-05-11T22:10:23.258Z,100059.72
2023-05-11T22:15:25.025Z,100057.72
2023-05-11T22:20:33.224Z,100059.53
2023-05-11T22:25:34.864Z,100053.03
2023-05-11T22:30:37.733Z,100053.88
2023-05-11T22:35:39.904Z,100067.47
2023-05-11T22:40:41.576Z,100068.16
2023-05-11T22:45:43.260Z,100076.88
2023-05-11T22:50:47.598Z,100082.88
2023-05-11T22:55:49.249Z,100074.88
2023-05-11T23:00:54.652Z,100077.16
2023-05-11T23:05:56.616Z,100075.63
2023-05-11T23:10:58.208Z,100082.28
2023-05-11T23:15:59.984Z,100081.94
2023-05-11T23:21:01.810Z,100073.34
2023-05-11T23:26:03.476Z,100081.19
2023-05-11T23:31:05.186Z,100074.06
2023-05-11T23:36:07.607Z,100067.75
2023-05-11T23:41:09.309Z,100075.38
2023-05-11T23:46:11.192Z,100066.66
2023-05-11T23:51:13.224Z,100067.47
2023-05-11T23:56:15.228Z,100064.16
